Logo AVAMET
Benvolgut visitant, si us plau, ingressa Recuperar contrasenya
AVAMET paisatges

Dénia Montgó

Dades diàries. Acumulats / Últims 30 dies disponibles

Data Temperatura (°C) Humitat rel. (%) Pressió rel. (hPa) Vent (km/h) Precipitació
Mínima Mitjana Màxima Amplitud
tèrmica
Mínima Mitjana Màxima Mínima Mitjana Màxima Predom. Mitjana Ràfega
màxima
Total
(mm)
Índex-n
Mínima Mitjana Màxima Mínima Mitjana Màxima n
0 a 1
P0 max
mm 5'
Dades mensuals acumulades fins l'últim dia disponible
01/2021 4,8 7,2 11,9 9,1 7,8 11,6 20,7 15,9 27 63 99 1.004 1.016 1.028   8,9 52,5 141,1
Dades anuals acumulades fins l'últim dia disponible
2021 4,8 7,2 11,9 9,1 7,8 11,6 20,7 15,9 27 63 99 1.004 1.016 1.028   8,9 52,5 141,1
Últims 30 dies disponibles
17-01-2021 11,9     15,1     20,7 8,8 27 33 42 1.023 1.025 1.027 SSE 5,3 20,4 0,0
16-01-2021 9,2     11,4     14,4 5,2 32 50 64 1.022 1.025 1.027 SSE 9,4 42,6 0,0
15-01-2021 10,4     12,7     15,1 4,7 37 48 68 1.021 1.022 1.024 S 6,9 22,2 0,0
14-01-2021 8,5     10,7     12,9 4,4 44 56 73 1.022 1.023 1.026 SE 4,4 15,5 0,0
13-01-2021 7,8     9,7     12,4 4,6 40 51 72 1.026 1.027 1.028 SE 5,3 29,6 2,5
12-01-2021 4,8     8,1     11,9 7,1 43 62 81 1.024 1.026 1.028 SSE 5,7 28,1 0,0
11-01-2021 6,4     7,4     8,9 2,5 76 87 96 1.016 1.019 1.025 SSO 5,9 20,4 3,0
10-01-2021 6,3     7,0     7,8 1,5 67 87 97 1.007 1.011 1.016 S 5,2 22,2 25,0
09-01-2021 5,5     6,9     8,7 3,2 84 98 99 1.004 1.005 1.007 S 10,0 37,0 7,0
08-01-2021 6,9     7,6     8,6 1,7 90 96 99 1.006 1.010 1.012 NE 14,5 44,4 53,6
07-01-2021 5,8     7,2     8,4 2,6 74 92 99 1.010 1.011 1.013 E 9,6 40,7 50,0 0,26 0,30
06-01-2021 5,7     7,7     9,8 4,1 50 63 77 1.012 1.013 1.015 SSE 5,4 16,7 0,0
05-01-2021 5,9     7,9     10,7 4,8 42 55 62 1.010 1.011 1.013 S 7,8 27,8 0,0
04-01-2021 7,1     8,8     11,4 4,3 44 53 59 1.009 1.011 1.013 SO 12,1 37,7 0,0
03-01-2021 5,5     8,2     11,7 6,2 38 45 49 1.011 1.012 1.014 OSO 13,1 38,9 0,0
02-01-2021 6,1     7,9     9,9 3,8 44 49 56 1.008 1.009 1.011 OSO 16,4 50,0 0,0
01-01-2021 8,6     10,6     13,1 4,5 41 56 77 1.005 1.007 1.010 OSO 14,8 52,5 0,0
31-12-2020 9,5     11,4     14,2 4,7 42 49 55 1.010 1.014 1.017 SSO 10,8 38,9 0,0
30-12-2020 8,3     10,4     13,2 4,9 40 46 52 1.014 SSO 13,2 37,0 0,0
29-12-2020 9,6     11,1     13,2 3,6 44 51 58 1.003 1.005 1.007 OSO 18,7 66,6 0,0
28-12-2020 10,7     13,8     16,7 6,0 23 49 74 998 1.001 1.004 OSO 19,8 72,2 0,0
27-12-2020 8,7     12,2     17,5 8,8 22 35 47 1.002 1.013 1.022 SSE 11,2 46,3 0,0
26-12-2020 6,6     9,1     12,6 6,0 30 37 44 1.022 1.024 1.026 SSO 10,1 29,6 0,0
25-12-2020 7,3     11,4     12,9 5,6 31 62 93 1.020 1.023 1.026 NO 9,3 42,5 0,0
24-12-2020 12,2     14,4     16,9 4,7 58 74 90 1.021 1.021 1.022 S 7,4 25,9 0,0
23-12-2020 12,3     16,1     20,8 8,5 52 74 95 1.021 1.023 1.025 SSE 5,1 25,9 0,0
22-12-2020 12,9     15,2     18,2 5,3 57 71 85 1.025 1.027 1.029 SSE 9,5 40,7 0,0
21-12-2020 11,6     14,6     17,8 6,2 58 70 81 1.026 1.027 1.028 SSE 7,9 35,1 0,0
20-12-2020 12,4     14,5     17,0 4,6 56 70 84 1.020 1.023 1.027 S 6,5 25,9 0,0
19-12-2020 11,3     13,8     17,6 6,3 60 78 96 1.019 1.020 1.022 SSE 6,4 38,9 0,3
Últims 13 mesos disponibles
12/2020 6,6 11,1 16,3 13,6 11,8 16,3 22,4 15,8 35 61 86 998 1.014 1.027 OSO 11,1 75,8 5,1
11/2020 11,1 14,6 17,8 16,7 14,3 19,1 25,1 14,0 56 80 96 1.006 1.022 1.029 SE 6,6 48,1 186,9
10/2020 12,4 16,6 20,7 19,7 17,9 22,9 28,0 15,6 42 61 81 999 1.017 1.025 SO 10,3 59,2 5,9
09/2020 16,6 20,9 24,2 23,6 23,1 26,4 30,2 13,6 40 67 83 1.011 1.017 1.023 SE 9,6 59,2 12,0
08/2020 18,1 24,0 25,4 27,2 24,1 30,8 38,4 20,3 48 67 87 943 1.012 1.019 SE 11,2 62,9 130,3
07/2020 21,3 23,5 25,7 26,1 26,7 29,5 35,6 14,3 54 70 85 1.011 1.016 1.020 SE 10,8 72,2 2,3
06/2020 15,3 20,1 23,0 23,4 20,2 27,2 31,1 15,8 43 67 86 1.005 1.014 1.021 NE 10,1 62,9 31,3
05/2020 13,2 17,8 21,8 21,2 18,8 24,9 29,6 16,4 47 67 86 1.005 1.017 1.027 NNE 9,8 59,2 11,7
04/2020 10,8 13,4 16,4 15,6 13,7 18,3 23,3 12,5 48 78 99 1.006 1.016 1.025 NNE 8,3 48,1 82,7
03/2020 8,3 12,1 17,5 14,6 10,8 17,6 24,6 16,3 43 73 97 1.007 1.017 1.026 OSO 10,7 83,3 94,4
02/2020 9,7 13,0 17,4 16,2 13,9 19,9 25,6 15,9 44 68 90 1.014 1.025 1.032 S 7,8 51,8 3,1
01/2020 7,9 11,0 15,9 13,1 11,7 15,5 21,1 13,2 55 75 95 1.014 1.023 1.032 SSE 8,2 75,8 124,9
12/2019 6,8 12,8 18,8 15,1 12,7 17,6 24,4 17,6 47 69 95 946 1.017 1.032 SO 9,6 88,8 64,7
Tots els anys disponibles
2020 6,6 16,6 25,7 19,3 10,8 22,4 38,4 31,8 35 69 99 943 1.017 1.032 SE 9,6 83,3 690,6
2019 5,9 16,1 26,8 19,0 9,9 22,2 38,7 32,8 20 66 99 945 1.016 1.032 SE 9,9 88,8 795,4
2018 4,2 16,3 27,3 18,9 7,3 22,0 35,8 31,6 39 69 98 992 1.015 1.033 SE 10,6 81,4 556,8
2017 0,6 16,0 26,4 19,1 8,6 22,4 36,1 35,5 35 69 97 997 1.017 1.034 SE 3,4 83,0 685,3
Temperatura (°C)
Humitat relativa (%)
Velocitat del vent i ràfega màxima (km/h)
Direcció del vent (°)
Pressió (hPa)
Precipitació (mm)
Nota sobre les dades: s'avisa a l'usuari de la provisionalitat i no oficialitat d'aquestes dades
Logo AVAMET blanc
Web allotjada a Sollutia
Llicència de Creative CommonsLa web d'AVAMET i els seus continguts estan subjectes a una llicència de
Reconeixement - No Comercial - Compartir igual
Avís legal - Política de privacitat - Política de cookies
NOVES ESTACIONS: Rossell - carrer Sant Vicent (Soci), Onda - CR Cota 220 (Soci), Artana (Ajuntament/Soci), Sax (Soci), Benicarló - Sant Gregori (Soci), Riba-roja de Túria - la Reva (Soci), Castielfabib - Arroyo Cerezo (Pròpia d'AVAMET), Tavernes de la Valldigna - Ull del Bou/Cambro (Soci), Chella - Casa Conde (Soci), El Genovés (Inforatge) - - -